sensor_id;sensor_type;location;lat;lon;timestamp;temperature;humidity
8591;DHT22;4333;48.322;14.340;2023-04-24T00:01:39;12.90;99.90
8591;DHT22;4333;48.322;14.340;2023-04-24T00:04:06;12.90;99.90
8591;DHT22;4333;48.322;14.340;2023-04-24T00:06:36;12.90;99.90
8591;DHT22;4333;48.322;14.340;2023-04-24T00:09:03;12.90;99.90
8591;DHT22;4333;48.322;14.340;2023-04-24T00:11:29;12.90;99.90
8591;DHT22;4333;48.322;14.340;2023-04-24T00:13:56;12.90;99.90
8591;DHT22;4333;48.322;14.340;2023-04-24T00:16:22;13.00;99.90
8591;DHT22;4333;48.322;14.340;2023-04-24T00:18:48;13.00;99.90
8591;DHT22;4333;48.322;14.340;2023-04-24T00:21:14;13.00;99.90
8591;DHT22;4333;48.322;14.340;2023-04-24T00:23:43;13.00;99.90
8591;DHT22;4333;48.322;14.340;2023-04-24T00:26:09;13.00;99.90
8591;DHT22;4333;48.322;14.340;2023-04-24T00:28:39;12.90;99.90
8591;DHT22;4333;48.322;14.340;2023-04-24T00:31:05;13.00;99.90
8591;DHT22;4333;48.322;14.340;2023-04-24T00:33:31;13.00;99.90
8591;DHT22;4333;48.322;14.340;2023-04-24T00:35:59;13.00;99.90
8591;DHT22;4333;48.322;14.340;2023-04-24T00:38:26;13.00;99.90
8591;DHT22;4333;48.322;14.340;2023-04-24T00:40:51;13.00;99.90
8591;DHT22;4333;48.322;14.340;2023-04-24T00:43:21;13.00;99.90
8591;DHT22;4333;48.322;14.340;2023-04-24T00:45:47;13.00;99.90
8591;DHT22;4333;48.322;14.340;2023-04-24T00:48:16;13.00;99.90
8591;DHT22;4333;48.322;14.340;2023-04-24T00:50:42;13.00;99.90
8591;DHT22;4333;48.322;14.340;2023-04-24T00:53:08;13.10;99.90
8591;DHT22;4333;48.322;14.340;2023-04-24T00:55:33;13.10;99.90
8591;DHT22;4333;48.322;14.340;2023-04-24T00:58:00;13.10;99.90
8591;DHT22;4333;48.322;14.340;2023-04-24T01:00:28;13.00;99.90
8591;DHT22;4333;48.322;14.340;2023-04-24T01:02:55;13.00;99.90
8591;DHT22;4333;48.322;14.340;2023-04-24T01:05:24;13.00;99.90
8591;DHT22;4333;48.322;14.340;2023-04-24T01:07:51;13.00;99.90
8591;DHT22;4333;48.322;14.340;2023-04-24T01:10:17;13.00;99.90
8591;DHT22;4333;48.322;14.340;2023-04-24T01:12:48;13.00;99.90
8591;DHT22;4333;48.322;14.340;2023-04-24T01:15:13;13.00;99.90
8591;DHT22;4333;48.322;14.340;2023-04-24T01:17:39;13.00;99.90
8591;DHT22;4333;48.322;14.340;2023-04-24T01:20:05;12.90;99.90
8591;DHT22;4333;48.322;14.340;2023-04-24T01:22:33;13.00;99.90
8591;DHT22;4333;48.322;14.340;2023-04-24T01:24:59;12.90;99.90
8591;DHT22;4333;48.322;14.340;2023-04-24T01:27:28;12.90;99.90
8591;DHT22;4333;48.322;14.340;2023-04-24T01:29:55;12.90;99.90
8591;DHT22;4333;48.322;14.340;2023-04-24T01:32:24;12.90;99.90
8591;DHT22;4333;48.322;14.340;2023-04-24T01:34:50;12.80;99.90
8591;DHT22;4333;48.322;14.340;2023-04-24T01:37:16;12.80;99.90
8591;DHT22;4333;48.322;14.340;2023-04-24T01:39:43;12.80;99.90
8591;DHT22;4333;48.322;14.340;2023-04-24T01:42:09;12.80;99.90
8591;DHT22;4333;48.322;14.340;2023-04-24T01:44:35;12.80;99.90
8591;DHT22;4333;48.322;14.340;2023-04-24T01:47:04;12.80;99.90
8591;DHT22;4333;48.322;14.340;2023-04-24T01:49:35;12.80;99.90
8591;DHT22;4333;48.322;14.340;2023-04-24T01:52:02;12.70;99.90
8591;DHT22;4333;48.322;14.340;2023-04-24T01:54:30;12.70;99.90
8591;DHT22;4333;48.322;14.340;2023-04-24T01:56:59;12.60;99.90
8591;DHT22;4333;48.322;14.340;2023-04-24T01:59:28;12.60;99.90
8591;DHT22;4333;48.322;14.340;2023-04-24T02:01:57;12.50;99.90
8591;DHT22;4333;48.322;14.340;2023-04-24T02:04:23;12.40;99.90
8591;DHT22;4333;48.322;14.340;2023-04-24T02:06:50;12.40;99.90
8591;DHT22;4333;48.322;14.340;2023-04-24T02:09:18;12.40;99.90
8591;DHT22;4333;48.322;14.340;2023-04-24T02:11:47;12.30;99.90
8591;DHT22;4333;48.322;14.340;2023-04-24T02:14:13;12.30;99.90
8591;DHT22;4333;48.322;14.340;2023-04-24T02:16:39;12.20;99.90
8591;DHT22;4333;48.322;14.340;2023-04-24T02:19:04;12.20;99.90
8591;DHT22;4333;48.322;14.340;2023-04-24T02:21:30;12.20;99.90
8591;DHT22;4333;48.322;14.340;2023-04-24T02:23:56;12.20;99.90
8591;DHT22;4333;48.322;14.340;2023-04-24T02:26:22;12.10;99.90
8591;DHT22;4333;48.322;14.340;2023-04-24T02:28:52;12.20;99.90
8591;DHT22;4333;48.322;14.340;2023-04-24T02:31:17;12.10;99.90
8591;DHT22;4333;48.322;14.340;2023-04-24T02:33:48;12.10;99.90
8591;DHT22;4333;48.322;14.340;2023-04-24T02:36:14;12.10;99.90
8591;DHT22;4333;48.322;14.340;2023-04-24T02:38:42;12.10;99.90
8591;DHT22;4333;48.322;14.340;2023-04-24T02:41:08;12.00;99.90
8591;DHT22;4333;48.322;14.340;2023-04-24T02:43:33;11.90;99.90
8591;DHT22;4333;48.322;14.340;2023-04-24T02:46:02;11.80;99.90
8591;DHT22;4333;48.322;14.340;2023-04-24T02:48:28;11.70;99.90
8591;DHT22;4333;48.322;14.340;2023-04-24T02:50:54;11.70;99.90
8591;DHT22;4333;48.322;14.340;2023-04-24T02:53:23;11.60;99.90
8591;DHT22;4333;48.322;14.340;2023-04-24T02:55:49;11.60;99.90
8591;DHT22;4333;48.322;14.340;2023-04-24T02:58:20;11.50;99.90
8591;DHT22;4333;48.322;14.340;2023-04-24T03:00:48;11.50;99.90
8591;DHT22;4333;48.322;14.340;2023-04-24T03:03:16;11.40;99.90
8591;DHT22;4333;48.322;14.340;2023-04-24T03:05:42;11.40;99.90
8591;DHT22;4333;48.322;14.340;2023-04-24T03:08:11;11.40;99.90
8591;DHT22;4333;48.322;14.340;2023-04-24T03:10:40;11.50;99.90
8591;DHT22;4333;48.322;14.340;2023-04-24T03:13:05;11.50;99.90
8591;DHT22;4333;48.322;14.340;2023-04-24T03:15:31;11.50;99.90
8591;DHT22;4333;48.322;14.340;2023-04-24T03:17:57;11.50;99.90
8591;DHT22;4333;48.322;14.340;2023-04-24T03:20:24;11.50;99.90
8591;DHT22;4333;48.322;14.340;2023-04-24T03:22:50;11.60;99.90
8591;DHT22;4333;48.322;14.340;2023-04-24T03:25:18;11.50;99.90
8591;DHT22;4333;48.322;14.340;2023-04-24T03:27:44;11.50;99.90
8591;DHT22;4333;48.322;14.340;2023-04-24T03:30:10;11.50;99.90
8591;DHT22;4333;48.322;14.340;2023-04-24T03:32:36;11.50;99.90
8591;DHT22;4333;48.322;14.340;2023-04-24T03:35:01;11.50;99.90
8591;DHT22;4333;48.322;14.340;2023-04-24T03:37:27;11.50;99.90
8591;DHT22;4333;48.322;14.340;2023-04-24T03:39:53;11.50;99.90
8591;DHT22;4333;48.322;14.340;2023-04-24T03:42:21;11.50;99.90
8591;DHT22;4333;48.322;14.340;2023-04-24T03:44:50;11.50;99.90
8591;DHT22;4333;48.322;14.340;2023-04-24T03:47:17;11.50;99.90
8591;DHT22;4333;48.322;14.340;2023-04-24T03:49:43;11.50;99.90
8591;DHT22;4333;48.322;14.340;2023-04-24T03:52:11;11.60;99.90
8591;DHT22;4333;48.322;14.340;2023-04-24T03:54:39;11.60;99.90
8591;DHT22;4333;48.322;14.340;2023-04-24T03:57:07;11.50;99.90
8591;DHT22;4333;48.322;14.340;2023-04-24T03:59:38;11.60;99.90
8591;DHT22;4333;48.322;14.340;2023-04-24T04:02:04;11.60;99.90
8591;DHT22;4333;48.322;14.340;2023-04-24T04:04:36;11.60;99.90
8591;DHT22;4333;48.322;14.340;2023-04-24T04:07:05;11.60;99.90
8591;DHT22;4333;48.322;14.340;2023-04-24T04:09:31;11.60;99.90
8591;DHT22;4333;48.322;14.340;2023-04-24T04:11:58;11.50;99.90
8591;DHT22;4333;48.322;14.340;2023-04-24T04:14:23;11.60;99.90
8591;DHT22;4333;48.322;14.340;2023-04-24T04:16:49;11.60;99.90
8591;DHT22;4333;48.322;14.340;2023-04-24T04:19:18;11.60;99.90
8591;DHT22;4333;48.322;14.340;2023-04-24T04:21:46;11.60;99.90
8591;DHT22;4333;48.322;14.340;2023-04-24T04:24:16;11.70;99.90
8591;DHT22;4333;48.322;14.340;2023-04-24T04:26:41;11.70;99.90
8591;DHT22;4333;48.322;14.340;2023-04-24T04:29:13;11.70;99.90
8591;DHT22;4333;48.322;14.340;2023-04-24T04:31:39;11.60;99.90
8591;DHT22;4333;48.322;14.340;2023-04-24T04:34:05;11.70;99.90
8591;DHT22;4333;48.322;14.340;2023-04-24T04:36:34;11.70;99.90
8591;DHT22;4333;48.322;14.340;2023-04-24T04:39:05;11.70;99.90
8591;DHT22;4333;48.322;14.340;2023-04-24T04:41:31;11.70;99.90
8591;DHT22;4333;48.322;14.340;2023-04-24T04:43:59;11.70;99.90
8591;DHT22;4333;48.322;14.340;2023-04-24T04:46:26;11.70;99.90
8591;DHT22;4333;48.322;14.340;2023-04-24T04:48:58;11.70;99.90
8591;DHT22;4333;48.322;14.340;2023-04-24T04:51:33;11.70;99.90
8591;DHT22;4333;48.322;14.340;2023-04-24T04:54:02;11.70;99.90
8591;DHT22;4333;48.322;14.340;2023-04-24T04:56:30;11.80;99.90
8591;DHT22;4333;48.322;14.340;2023-04-24T04:59:01;11.70;99.90
8591;DHT22;4333;48.322;14.340;2023-04-24T05:01:34;11.70;99.90
8591;DHT22;4333;48.322;14.340;2023-04-24T05:04:00;11.70;99.90
8591;DHT22;4333;48.322;14.340;2023-04-24T05:06:25;11.70;99.90
8591;DHT22;4333;48.322;14.340;2023-04-24T05:08:54;11.70;99.90
8591;DHT22;4333;48.322;14.340;2023-04-24T05:11:23;11.70;99.90
8591;DHT22;4333;48.322;14.340;2023-04-24T05:13:52;11.60;99.90
8591;DHT22;4333;48.322;14.340;2023-04-24T05:16:19;11.70;99.90
8591;DHT22;4333;48.322;14.340;2023-04-24T05:18:45;11.70;99.90
8591;DHT22;4333;48.322;14.340;2023-04-24T05:21:20;11.70;99.90
8591;DHT22;4333;48.322;14.340;2023-04-24T05:23:48;11.70;99.90
8591;DHT22;4333;48.322;14.340;2023-04-24T05:26:15;11.70;99.90
8591;DHT22;4333;48.322;14.340;2023-04-24T05:28:43;11.60;99.90
8591;DHT22;4333;48.322;14.340;2023-04-24T05:31:26;11.60;99.90
8591;DHT22;4333;48.322;14.340;2023-04-24T05:33:51;11.60;99.90
8591;DHT22;4333;48.322;14.340;2023-04-24T05:36:19;11.60;99.90
8591;DHT22;4333;48.322;14.340;2023-04-24T05:38:48;11.50;99.90
8591;DHT22;4333;48.322;14.340;2023-04-24T05:41:15;11.40;99.90
8591;DHT22;4333;48.322;14.340;2023-04-24T05:43:41;11.40;99.90
8591;DHT22;4333;48.322;14.340;2023-04-24T05:46:12;11.40;99.90
8591;DHT22;4333;48.322;14.340;2023-04-24T05:48:38;11.40;99.90
8591;DHT22;4333;48.322;14.340;2023-04-24T05:51:06;11.30;99.90
8591;DHT22;4333;48.322;14.340;2023-04-24T05:53:35;11.30;99.90
8591;DHT22;4333;48.322;14.340;2023-04-24T05:56:04;11.30;99.90
8591;DHT22;4333;48.322;14.340;2023-04-24T05:58:29;11.20;99.90
8591;DHT22;4333;48.322;14.340;2023-04-24T06:00:58;11.20;99.90
8591;DHT22;4333;48.322;14.340;2023-04-24T06:03:27;11.20;99.90
8591;DHT22;4333;48.322;14.340;2023-04-24T06:06:01;11.10;99.90
8591;DHT22;4333;48.322;14.340;2023-04-24T06:08:34;11.00;99.90
8591;DHT22;4333;48.322;14.340;2023-04-24T06:11:02;11.00;99.90
8591;DHT22;4333;48.322;14.340;2023-04-24T06:13:31;10.90;99.90
8591;DHT22;4333;48.322;14.340;2023-04-24T06:16:01;10.90;99.90
8591;DHT22;4333;48.322;14.340;2023-04-24T06:18:29;10.90;99.90
8591;DHT22;4333;48.322;14.340;2023-04-24T06:20:57;10.90;99.90
8591;DHT22;4333;48.322;14.340;2023-04-24T06:23:23;10.90;99.90
8591;DHT22;4333;48.322;14.340;2023-04-24T06:25:49;10.80;99.90
8591;DHT22;4333;48.322;14.340;2023-04-24T06:28:15;10.80;99.90
8591;DHT22;4333;48.322;14.340;2023-04-24T06:30:41;10.80;99.90
8591;DHT22;4333;48.322;14.340;2023-04-24T06:33:09;10.80;99.90
8591;DHT22;4333;48.322;14.340;2023-04-24T06:35:37;10.80;99.90
8591;DHT22;4333;48.322;14.340;2023-04-24T06:38:06;10.80;99.90
8591;DHT22;4333;48.322;14.340;2023-04-24T06:40:34;10.80;99.90
8591;DHT22;4333;48.322;14.340;2023-04-24T06:43:00;10.90;99.90
8591;DHT22;4333;48.322;14.340;2023-04-24T06:45:28;10.90;99.90
8591;DHT22;4333;48.322;14.340;2023-04-24T06:47:54;10.80;99.90
8591;DHT22;4333;48.322;14.340;2023-04-24T06:50:27;10.90;99.90
8591;DHT22;4333;48.322;14.340;2023-04-24T06:52:53;10.90;99.90
8591;DHT22;4333;48.322;14.340;2023-04-24T06:55:22;10.90;99.90
8591;DHT22;4333;48.322;14.340;2023-04-24T06:57:50;10.90;99.90
8591;DHT22;4333;48.322;14.340;2023-04-24T07:00:18;10.80;99.90
8591;DHT22;4333;48.322;14.340;2023-04-24T07:02:47;10.90;99.90
8591;DHT22;4333;48.322;14.340;2023-04-24T07:05:15;10.90;99.90
8591;DHT22;4333;48.322;14.340;2023-04-24T07:07:46;10.90;99.90
8591;DHT22;4333;48.322;14.340;2023-04-24T07:10:15;11.00;99.90
8591;DHT22;4333;48.322;14.340;2023-04-24T07:12:41;10.90;99.90
8591;DHT22;4333;48.322;14.340;2023-04-24T07:15:07;10.90;99.90
8591;DHT22;4333;48.322;14.340;2023-04-24T07:17:34;11.00;99.90
8591;DHT22;4333;48.322;14.340;2023-04-24T07:20:04;11.00;99.90
8591;DHT22;4333;48.322;14.340;2023-04-24T07:22:29;11.00;99.90
8591;DHT22;4333;48.322;14.340;2023-04-24T07:24:57;10.90;99.90
8591;DHT22;4333;48.322;14.340;2023-04-24T07:27:22;10.90;99.90
8591;DHT22;4333;48.322;14.340;2023-04-24T07:29:50;11.00;99.90
8591;DHT22;4333;48.322;14.340;2023-04-24T07:32:18;11.00;99.90
8591;DHT22;4333;48.322;14.340;2023-04-24T07:34:47;11.10;99.90
8591;DHT22;4333;48.322;14.340;2023-04-24T07:37:12;11.00;99.90
8591;DHT22;4333;48.322;14.340;2023-04-24T07:39:38;11.10;99.90
8591;DHT22;4333;48.322;14.340;2023-04-24T07:42:05;11.20;99.90
8591;DHT22;4333;48.322;14.340;2023-04-24T07:44:34;11.30;99.90
8591;DHT22;4333;48.322;14.340;2023-04-24T07:47:03;11.20;99.90
8591;DHT22;4333;48.322;14.340;2023-04-24T07:49:31;11.20;99.90
8591;DHT22;4333;48.322;14.340;2023-04-24T07:51:59;11.30;99.90
8591;DHT22;4333;48.322;14.340;2023-04-24T07:54:27;11.40;99.90
8591;DHT22;4333;48.322;14.340;2023-04-24T07:56:56;11.50;99.90
8591;DHT22;4333;48.322;14.340;2023-04-24T07:59:22;11.70;99.90
8591;DHT22;4333;48.322;14.340;2023-04-24T08:01:51;11.60;99.90
8591;DHT22;4333;48.322;14.340;2023-04-24T08:04:17;11.70;99.90
8591;DHT22;4333;48.322;14.340;2023-04-24T08:06:46;11.50;99.90
8591;DHT22;4333;48.322;14.340;2023-04-24T08:09:12;11.50;99.90
8591;DHT22;4333;48.322;14.340;2023-04-24T08:11:38;11.50;99.90
8591;DHT22;4333;48.322;14.340;2023-04-24T08:14:03;11.40;99.90
8591;DHT22;4333;48.322;14.340;2023-04-24T08:16:30;11.50;99.90
8591;DHT22;4333;48.322;14.340;2023-04-24T08:19:03;11.60;99.90
8591;DHT22;4333;48.322;14.340;2023-04-24T08:21:32;11.70;99.90
8591;DHT22;4333;48.322;14.340;2023-04-24T08:23:58;11.60;99.90
8591;DHT22;4333;48.322;14.340;2023-04-24T08:26:30;11.70;99.90
8591;DHT22;4333;48.322;14.340;2023-04-24T08:28:56;11.60;99.90
8591;DHT22;4333;48.322;14.340;2023-04-24T08:31:22;11.70;99.90
8591;DHT22;4333;48.322;14.340;2023-04-24T08:33:48;11.60;99.90
8591;DHT22;4333;48.322;14.340;2023-04-24T08:36:14;11.70;99.90
8591;DHT22;4333;48.322;14.340;2023-04-24T08:38:42;11.70;99.90
8591;DHT22;4333;48.322;14.340;2023-04-24T08:41:11;11.80;99.90
8591;DHT22;4333;48.322;14.340;2023-04-24T08:43:40;11.80;99.90
8591;DHT22;4333;48.322;14.340;2023-04-24T08:46:07;11.80;99.90
8591;DHT22;4333;48.322;14.340;2023-04-24T08:48:35;11.90;99.90
8591;DHT22;4333;48.322;14.340;2023-04-24T08:51:02;12.00;99.90
8591;DHT22;4333;48.322;14.340;2023-04-24T08:53:30;12.00;99.90
8591;DHT22;4333;48.322;14.340;2023-04-24T08:55:58;11.90;99.90
8591;DHT22;4333;48.322;14.340;2023-04-24T08:58:27;11.80;99.90
8591;DHT22;4333;48.322;14.340;2023-04-24T09:00:56;11.90;99.90
8591;DHT22;4333;48.322;14.340;2023-04-24T09:03:22;11.80;99.90
8591;DHT22;4333;48.322;14.340;2023-04-24T09:05:49;11.90;99.90
8591;DHT22;4333;48.322;14.340;2023-04-24T09:08:18;11.90;99.90
8591;DHT22;4333;48.322;14.340;2023-04-24T09:10:47;12.00;99.90
8591;DHT22;4333;48.322;14.340;2023-04-24T09:13:13;12.10;99.90
8591;DHT22;4333;48.322;14.340;2023-04-24T09:15:40;12.10;99.90
8591;DHT22;4333;48.322;14.340;2023-04-24T09:18:09;12.20;99.90
8591;DHT22;4333;48.322;14.340;2023-04-24T09:20:56;12.20;99.90
8591;DHT22;4333;48.322;14.340;2023-04-24T09:23:25;12.00;99.90
8591;DHT22;4333;48.322;14.340;2023-04-24T09:25:54;12.20;99.90
8591;DHT22;4333;48.322;14.340;2023-04-24T09:28:26;12.30;99.90
8591;DHT22;4333;48.322;14.340;2023-04-24T09:31:14;12.40;99.90
8591;DHT22;4333;48.322;14.340;2023-04-24T09:34:00;12.50;99.90
8591;DHT22;4333;48.322;14.340;2023-04-24T09:36:31;12.70;99.90
8591;DHT22;4333;48.322;14.340;2023-04-24T09:39:09;12.60;99.90
8591;DHT22;4333;48.322;14.340;2023-04-24T09:41:57;12.50;99.90
8591;DHT22;4333;48.322;14.340;2023-04-24T09:44:27;12.50;99.90
8591;DHT22;4333;48.322;14.340;2023-04-24T09:47:00;12.60;99.90
8591;DHT22;4333;48.322;14.340;2023-04-24T09:49:29;12.30;99.90
8591;DHT22;4333;48.322;14.340;2023-04-24T09:52:09;12.30;99.90
8591;DHT22;4333;48.322;14.340;2023-04-24T09:54:35;12.40;99.90
8591;DHT22;4333;48.322;14.340;2023-04-24T09:57:04;12.40;99.90
8591;DHT22;4333;48.322;14.340;2023-04-24T09:59:30;12.50;99.90
8591;DHT22;4333;48.322;14.340;2023-04-24T10:01:57;12.50;99.90
8591;DHT22;4333;48.322;14.340;2023-04-24T10:04:26;12.60;99.90
8591;DHT22;4333;48.322;14.340;2023-04-24T10:06:54;12.60;99.90
8591;DHT22;4333;48.322;14.340;2023-04-24T10:09:29;12.80;99.90
8591;DHT22;4333;48.322;14.340;2023-04-24T10:11:57;12.90;99.90
8591;DHT22;4333;48.322;14.340;2023-04-24T10:14:24;12.90;99.90
8591;DHT22;4333;48.322;14.340;2023-04-24T10:16:55;12.90;99.90
8591;DHT22;4333;48.322;14.340;2023-04-24T10:19:26;12.90;99.90
8591;DHT22;4333;48.322;14.340;2023-04-24T10:21:54;12.80;99.90
8591;DHT22;4333;48.322;14.340;2023-04-24T10:24:21;12.90;99.90
8591;DHT22;4333;48.322;14.340;2023-04-24T10:26:47;12.90;99.90
8591;DHT22;4333;48.322;14.340;2023-04-24T10:29:17;13.10;99.90
8591;DHT22;4333;48.322;14.340;2023-04-24T10:31:43;13.10;99.90
8591;DHT22;4333;48.322;14.340;2023-04-24T10:34:12;13.30;99.90
8591;DHT22;4333;48.322;14.340;2023-04-24T10:36:42;13.30;99.90
8591;DHT22;4333;48.322;14.340;2023-04-24T10:39:12;13.30;99.90
8591;DHT22;4333;48.322;14.340;2023-04-24T10:41:38;13.30;99.90
8591;DHT22;4333;48.322;14.340;2023-04-24T10:44:12;13.20;99.90
8591;DHT22;4333;48.322;14.340;2023-04-24T10:46:44;13.10;99.90
8591;DHT22;4333;48.322;14.340;2023-04-24T10:49:10;13.10;99.90
8591;DHT22;4333;48.322;14.340;2023-04-24T10:54:46;13.50;99.90
8591;DHT22;4333;48.322;14.340;2023-04-24T10:59:45;13.80;99.90
8591;DHT22;4333;48.322;14.340;2023-04-24T11:02:14;13.80;99.90
8591;DHT22;4333;48.322;14.340;2023-04-24T11:04:41;14.00;99.90
8591;DHT22;4333;48.322;14.340;2023-04-24T11:07:10;14.20;99.90
8591;DHT22;4333;48.322;14.340;2023-04-24T11:09:37;13.90;99.90
8591;DHT22;4333;48.322;14.340;2023-04-24T11:12:14;14.10;99.90
8591;DHT22;4333;48.322;14.340;2023-04-24T11:17:41;14.90;99.90
8591;DHT22;4333;48.322;14.340;2023-04-24T11:20:10;15.00;99.90
8591;DHT22;4333;48.322;14.340;2023-04-24T11:22:39;14.90;95.30
8591;DHT22;4333;48.322;14.340;2023-04-24T11:25:08;14.50;99.10
8591;DHT22;4333;48.322;14.340;2023-04-24T11:27:42;14.50;99.90
8591;DHT22;4333;48.322;14.340;2023-04-24T11:30:12;14.70;97.30
8591;DHT22;4333;48.322;14.340;2023-04-24T11:32:48;15.00;99.90
8591;DHT22;4333;48.322;14.340;2023-04-24T11:35:20;15.10;99.10
8591;DHT22;4333;48.322;14.340;2023-04-24T11:37:47;15.50;99.90
8591;DHT22;4333;48.322;14.340;2023-04-24T11:40:17;15.70;96.50
8591;DHT22;4333;48.322;14.340;2023-04-24T11:42:51;15.90;87.90
8591;DHT22;4333;48.322;14.340;2023-04-24T11:45:23;15.70;81.60
8591;DHT22;4333;48.322;14.340;2023-04-24T11:47:51;15.70;91.90
8591;DHT22;4333;48.322;14.340;2023-04-24T11:50:20;15.20;88.00
8591;DHT22;4333;48.322;14.340;2023-04-24T11:52:52;15.00;99.90
8591;DHT22;4333;48.322;14.340;2023-04-24T11:57:53;14.50;99.90
8591;DHT22;4333;48.322;14.340;2023-04-24T12:02:48;13.60;92.40
8591;DHT22;4333;48.322;14.340;2023-04-24T12:05:27;13.50;95.30
8591;DHT22;4333;48.322;14.340;2023-04-24T12:07:53;13.60;99.90
8591;DHT22;4333;48.322;14.340;2023-04-24T12:10:31;13.40;99.90
8591;DHT22;4333;48.322;14.340;2023-04-24T12:13:03;13.40;99.90
8591;DHT22;4333;48.322;14.340;2023-04-24T12:15:32;13.30;99.90
8591;DHT22;4333;48.322;14.340;2023-04-24T12:17:58;13.00;99.90
8591;DHT22;4333;48.322;14.340;2023-04-24T12:20:31;12.90;99.90
8591;DHT22;4333;48.322;14.340;2023-04-24T12:22:58;12.80;99.90
8591;DHT22;4333;48.322;14.340;2023-04-24T12:25:36;12.80;99.90
8591;DHT22;4333;48.322;14.340;2023-04-24T12:30:39;12.90;99.90
8591;DHT22;4333;48.322;14.340;2023-04-24T12:33:05;13.00;99.90
8591;DHT22;4333;48.322;14.340;2023-04-24T12:35:40;13.00;99.90
8591;DHT22;4333;48.322;14.340;2023-04-24T12:38:07;12.80;99.90
8591;DHT22;4333;48.322;14.340;2023-04-24T12:40:33;12.60;99.90
8591;DHT22;4333;48.322;14.340;2023-04-24T12:43:18;12.40;99.90
8591;DHT22;4333;48.322;14.340;2023-04-24T12:45:52;12.20;99.90
8591;DHT22;4333;48.322;14.340;2023-04-24T12:48:27;12.20;99.90
8591;DHT22;4333;48.322;14.340;2023-04-24T12:50:53;12.00;99.90
8591;DHT22;4333;48.322;14.340;2023-04-24T12:53:19;11.90;99.90
8591;DHT22;4333;48.322;14.340;2023-04-24T12:55:45;11.90;99.90
8591;DHT22;4333;48.322;14.340;2023-04-24T12:58:12;11.70;99.90
8591;DHT22;4333;48.322;14.340;2023-04-24T13:00:41;11.70;99.90
8591;DHT22;4333;48.322;14.340;2023-04-24T13:03:08;11.70;99.90
8591;DHT22;4333;48.322;14.340;2023-04-24T13:05:35;11.40;99.90
8591;DHT22;4333;48.322;14.340;2023-04-24T13:08:00;11.30;99.90
8591;DHT22;4333;48.322;14.340;2023-04-24T13:10:30;11.40;99.90
8591;DHT22;4333;48.322;14.340;2023-04-24T13:12:56;11.40;99.90
8591;DHT22;4333;48.322;14.340;2023-04-24T13:15:22;11.30;99.90
8591;DHT22;4333;48.322;14.340;2023-04-24T13:17:47;11.40;99.90
8591;DHT22;4333;48.322;14.340;2023-04-24T13:20:13;11.50;99.90
8591;DHT22;4333;48.322;14.340;2023-04-24T13:22:39;11.60;99.90
8591;DHT22;4333;48.322;14.340;2023-04-24T13:25:07;11.70;99.90
8591;DHT22;4333;48.322;14.340;2023-04-24T13:27:34;11.80;99.90
8591;DHT22;4333;48.322;14.340;2023-04-24T13:30:06;11.90;99.90
8591;DHT22;4333;48.322;14.340;2023-04-24T13:32:36;12.20;99.90
8591;DHT22;4333;48.322;14.340;2023-04-24T13:35:02;12.20;99.90
8591;DHT22;4333;48.322;14.340;2023-04-24T13:37:28;12.50;99.90
8591;DHT22;4333;48.322;14.340;2023-04-24T13:39:56;12.60;99.90
8591;DHT22;4333;48.322;14.340;2023-04-24T13:42:22;12.80;99.90
8591;DHT22;4333;48.322;14.340;2023-04-24T13:44:48;13.00;99.90
8591;DHT22;4333;48.322;14.340;2023-04-24T13:47:16;13.00;99.90
8591;DHT22;4333;48.322;14.340;2023-04-24T13:49:51;13.00;99.90
8591;DHT22;4333;48.322;14.340;2023-04-24T13:52:19;13.00;99.20
8591;DHT22;4333;48.322;14.340;2023-04-24T13:54:45;13.00;99.90
8591;DHT22;4333;48.322;14.340;2023-04-24T13:57:14;13.30;99.90
8591;DHT22;4333;48.322;14.340;2023-04-24T13:59:40;13.50;99.90
8591;DHT22;4333;48.322;14.340;2023-04-24T14:02:11;13.70;99.90
8591;DHT22;4333;48.322;14.340;2023-04-24T14:04:40;14.00;99.90
8591;DHT22;4333;48.322;14.340;2023-04-24T14:07:08;14.00;96.90
8591;DHT22;4333;48.322;14.340;2023-04-24T14:09:37;14.10;84.80
8591;DHT22;4333;48.322;14.340;2023-04-24T14:12:03;14.20;93.00
8591;DHT22;4333;48.322;14.340;2023-04-24T14:14:29;14.30;83.40
8591;DHT22;4333;48.322;14.340;2023-04-24T14:16:58;14.20;84.50
8591;DHT22;4333;48.322;14.340;2023-04-24T14:19:26;14.00;73.50
8591;DHT22;4333;48.322;14.340;2023-04-24T14:21:54;14.00;78.70
8591;DHT22;4333;48.322;14.340;2023-04-24T14:24:22;14.10;72.30
8591;DHT22;4333;48.322;14.340;2023-04-24T14:26:47;14.10;72.00
8591;DHT22;4333;48.322;14.340;2023-04-24T14:29:16;14.10;70.50
8591;DHT22;4333;48.322;14.340;2023-04-24T14:31:45;14.30;69.40
8591;DHT22;4333;48.322;14.340;2023-04-24T14:34:16;14.40;64.80
8591;DHT22;4333;48.322;14.340;2023-04-24T14:36:42;14.20;58.70
8591;DHT22;4333;48.322;14.340;2023-04-24T14:39:07;14.20;63.00
8591;DHT22;4333;48.322;14.340;2023-04-24T14:41:33;14.30;63.90
8591;DHT22;4333;48.322;14.340;2023-04-24T14:44:03;14.50;72.80
8591;DHT22;4333;48.322;14.340;2023-04-24T14:46:29;14.70;71.00
8591;DHT22;4333;48.322;14.340;2023-04-24T14:48:58;14.80;63.80
8591;DHT22;4333;48.322;14.340;2023-04-24T14:51:27;14.70;64.50
8591;DHT22;4333;48.322;14.340;2023-04-24T14:53:52;14.50;57.60
8591;DHT22;4333;48.322;14.340;2023-04-24T14:56:18;14.40;61.70
8591;DHT22;4333;48.322;14.340;2023-04-24T14:58:44;14.30;62.00
8591;DHT22;4333;48.322;14.340;2023-04-24T15:01:10;14.20;65.40
8591;DHT22;4333;48.322;14.340;2023-04-24T15:03:39;14.20;61.60
8591;DHT22;4333;48.322;14.340;2023-04-24T15:06:05;14.10;68.90
8591;DHT22;4333;48.322;14.340;2023-04-24T15:08:32;13.80;76.20
8591;DHT22;4333;48.322;14.340;2023-04-24T15:10:58;13.20;92.00
8591;DHT22;4333;48.322;14.340;2023-04-24T15:13:24;12.80;98.60
8591;DHT22;4333;48.322;14.340;2023-04-24T15:15:49;12.40;96.60
8591;DHT22;4333;48.322;14.340;2023-04-24T15:18:24;12.20;99.90
8591;DHT22;4333;48.322;14.340;2023-04-24T15:20:55;12.00;99.90
8591;DHT22;4333;48.322;14.340;2023-04-24T15:23:23;12.00;99.90
8591;DHT22;4333;48.322;14.340;2023-04-24T15:25:49;11.90;99.90
8591;DHT22;4333;48.322;14.340;2023-04-24T15:28:15;11.90;99.90
8591;DHT22;4333;48.322;14.340;2023-04-24T15:30:43;12.00;99.90
8591;DHT22;4333;48.322;14.340;2023-04-24T15:33:10;11.90;99.90
8591;DHT22;4333;48.322;14.340;2023-04-24T15:35:37;11.90;98.50
8591;DHT22;4333;48.322;14.340;2023-04-24T15:38:06;11.80;98.80
8591;DHT22;4333;48.322;14.340;2023-04-24T15:40:37;11.90;98.80
8591;DHT22;4333;48.322;14.340;2023-04-24T15:43:02;11.80;99.80
8591;DHT22;4333;48.322;14.340;2023-04-24T15:45:28;11.80;99.90
8591;DHT22;4333;48.322;14.340;2023-04-24T15:47:55;11.80;99.90
8591;DHT22;4333;48.322;14.340;2023-04-24T15:50:21;11.80;99.90
8591;DHT22;4333;48.322;14.340;2023-04-24T15:52:50;11.80;99.90
8591;DHT22;4333;48.322;14.340;2023-04-24T15:55:18;11.80;99.90
8591;DHT22;4333;48.322;14.340;2023-04-24T15:57:48;11.80;99.90
8591;DHT22;4333;48.322;14.340;2023-04-24T16:00:15;11.80;99.90
8591;DHT22;4333;48.322;14.340;2023-04-24T16:02:41;11.70;99.90
8591;DHT22;4333;48.322;14.340;2023-04-24T16:05:08;11.70;99.90
8591;DHT22;4333;48.322;14.340;2023-04-24T16:07:40;11.80;99.90